Aviation Digital Data Service (ADDS)

Output produced by METARs form (0235 UTC 25 January 2020)
found at http://www.aviationweather.gov/metar/data/
 
Forecast for: AMD
Text: TAF AMD ZJHK 250218Z 2500/2524 11004MPS 6000 SCT016 TX27/2506Z TN17/2523Z
Forecast period: 0000 to 2000 UTC 25 January 2020
Forecast type: FROM: standard forecast or significant change
Winds: from the ESE (110 degrees) at 9 MPH (8 knots; 4.1 m/s)
Visibility: 4 miles (6 km)
Ceiling: at least 12,000 feet AGL
Clouds: scattered clouds at 1600 feet AGL
Weather: no significant weather forecast for this period
Text: BECMG 2520/2521 36006G12MPS BKN010 FEW026CB BKN030
Forecast period: 2000 UTC 25 January 2020 to 0000 UTC 26 January 2020
Forecast type: BECOMING: Conditions expected to become as follows by 2100 UTC 25 January 2020
Winds: from the N (360 degrees) at 14 MPH (12 knots; 6.2 m/s)
gusting to 26 MPH (23 knots; 11.8 m/s)
Visibility: 4 miles (6 km)
Ceiling: 1000 feet AGL
Clouds: broken clouds at 1000 feet AGL
few clouds at 2600 feet AGL
broken clouds at 3000 feet AGL
Weather: no significant weather forecast for this period
Text: TEMPO 2521/2524 -TSRA
Forecast period: 2100 UTC 25 January 2020 to 0000 UTC 26 January 2020
Forecast type: TEMPORARY: The following changes expected for less than half the time period
Visibility: missing
Ceiling: unknown
Clouds: missing
Weather: -TSRA  (light rain associated with thunderstorm(s))